Mount Holly Springs, Pennsylvania
Current Conditions -  °F | °C
As of 7:56 AM on Sunday 21 Dec 2014 (Local Time) from KCXY Reporting Station
Haze Haze  
Wind Chill: 26°   Ceiling: Unl
Heat Index: 26°   Visibility: 6mi
Dew Point: 20°   Wind: 3mph
Humidity: 78%   Direction: 270°W
Pressure: 30.34"   Gusts: NA
Location:  40.12°N, 77.19°W
Report Text: KCXY 211256Z 27003KT 6SM HZ SCT029 M03/M07 A3034 RMK AO2 SLP278 T10331067
Loading
Personal Weather Stations






























Interactive Weather Map New forecast layout! Learn more

10-Day Weather Forecast

Advertisements
Track Severe Weather on mobile